Aérodrome :
LOGIN :

S'inscrire | Disclaimer

   EN    FR    IT 

 










Légende :    VFR   VFR Marginal   IFR   IFR Intensif   IFR Très Intensif
Visi : 
Plafond : 
>= 8 km
>= 3000ft
5 à 8 km
1000 à 3000 ft
1500m à 5 km
500 à 1000 ft
800 à 1500m
200 à 500 ft
< 800m
< 200 ft
Symboles :   Orages  Brouillard  Fortes neiges  Fortes précipitations  Vent > 20 kt
SIGMETs :   Divers  Orages  Givrage  Turbulence  Onde Orograph.  Cendres Volcan.







- Altitude de l'aérodrome : 277 ft
- Code IATA : JER
- Voir les cartes d'approche


EGJJ - Jersey

DERNIER METAR :
  • 240950Z 24015KT 9999 5000E -DZ FEW007 BKN016 16/15 Q1018 TEMPO BKN010

METARs EXPIRÉS :
  • 240920Z 23013KT 9999 -DZ FEW007 BKN015 17/15 Q1019 TEMPO BKN010
  • 240850Z 23013KT 9999 FEW007 BKN016 17/14 Q1019 NOSIG
  • 240820Z 23014KT 9999 FEW007 BKN012 16/14 Q1019 TEMPO BKN008
  • 240750Z 24013KT 9999 FEW005 BKN009 16/14 Q1019 TEMPO BKN006
  • 240720Z 24013KT 9999 BKN010 16/14 Q1019 TEMPO BKN007

TAF TAF EGJJ
Valide du 24 à 09h jusqu'au 24 à 18h UTC


240811Z 2409/2418 25015KT 9999 BKN015
TEMPO 2409/2418 BKN006
PROB40
TEMPO 2417/2418 5000 -RADZ BKN004
ATIS : +44 1534 498 073
Pas de NOTAMs connus pour ce terrain.



MET'MAP, la Météo Aéronautique d'un coup d'oeil ! - Copyright ORBIFLY Décembre 2007 - Disclaimer

ORBIFLY MET'MAP TEAM :

Programmation & Développement : Alexandra Zaïnal
Conception & Développement : Baudouin d'Aumeries
Co-Programmation & Développement : Marc-Olivier Méhu
Soutien technique & logistique : Manuel Goepfert

Contact : metmap@orbifly.com




SOURCES & CREDITS :

   NOAA